Terminal Aerodrome Forecast
Issued by NWS Norman, OK

Home | Current Version | Previous Version | Text Only | Print | Product List | Glossary On
Versions: 1 2 3 4 5 6 7 8 9 10 11 12 13 14 15 16 17 18 19 20 21 22 23 24 25 26 27 28 29 30 31 32 33 34 35 36 37 38 39 40 41 42
000
FTUS44 KOUN 271407 AAA
TAFOKC
TAF AMD
KOKC 271407Z 2714/2812 18010KT P6SM SCT025
      TEMPO 2714/2716 BKN025
     FM271800 17012KT P6SM BKN035
     FM280000 16011KT P6SM OVC050=

USA.gov is the U.S. government's official web portal to all federal, state and local government web resources and services.